createdAt,value
2023-04-10T00:03:32.289Z,9.66
2023-04-10T00:08:34.166Z,9.69
2023-04-10T00:13:36.018Z,9.68
2023-04-10T00:18:37.939Z,9.49
2023-04-10T00:23:39.900Z,9.39
2023-04-10T00:28:41.713Z,9.31
2023-04-10T00:33:43.536Z,9.40
2023-04-10T00:38:45.438Z,9.51
2023-04-10T00:43:47.270Z,9.57
2023-04-10T00:48:49.305Z,9.57
2023-04-10T00:53:51.844Z,9.64
2023-04-10T00:58:53.948Z,9.69
2023-04-10T01:03:56.047Z,9.68
2023-04-10T01:09:25.512Z,9.68
2023-04-10T01:14:42.809Z,9.70
2023-04-10T01:20:09.256Z,9.52
2023-04-10T01:25:35.546Z,9.35
2023-04-10T01:30:37.484Z,9.38
2023-04-10T01:35:40.093Z,9.28
2023-04-10T01:40:41.964Z,9.29
2023-04-10T01:45:43.884Z,9.32
2023-04-10T01:50:46.513Z,9.23
2023-04-10T01:55:48.114Z,9.10
2023-04-10T02:00:49.971Z,9.23
2023-04-10T02:06:17.835Z,9.24
2023-04-10T02:11:30.367Z,9.16
2023-04-10T02:16:32.367Z,9.09
2023-04-10T02:21:34.292Z,9.16
2023-04-10T02:26:46.118Z,9.38
2023-04-10T02:31:47.992Z,9.41
2023-04-10T02:36:49.923Z,9.37
2023-04-10T02:41:51.786Z,9.43
2023-04-10T02:46:53.626Z,9.47
2023-04-10T02:51:55.474Z,9.53
2023-04-10T02:56:57.445Z,9.56
2023-04-10T03:01:59.646Z,9.52
2023-04-10T03:07:01.525Z,9.54
2023-04-10T03:12:03.522Z,9.48
2023-04-10T03:17:05.343Z,9.47
2023-04-10T03:22:07.183Z,9.58
2023-04-10T03:27:09.071Z,9.63
2023-04-10T03:32:10.908Z,10.11
2023-04-10T03:37:12.724Z,10.16
2023-04-10T03:42:14.617Z,11.20
2023-04-10T03:47:16.468Z,13.30
2023-04-10T03:52:18.385Z,13.13
2023-04-10T03:57:20.370Z,12.42
2023-04-10T04:02:22.354Z,12.20
2023-04-10T04:07:24.360Z,12.38
2023-04-10T04:12:26.539Z,12.49
2023-04-10T04:17:28.400Z,12.84
2023-04-10T04:22:30.251Z,13.07
2023-04-10T04:27:32.101Z,13.21
2023-04-10T04:32:33.976Z,13.38
2023-04-10T04:37:35.963Z,13.45
2023-04-10T04:42:37.845Z,13.34
2023-04-10T04:47:39.673Z,13.39
2023-04-10T04:52:41.628Z,13.39
2023-04-10T04:57:43.506Z,13.37
2023-04-10T05:02:45.498Z,13.55
2023-04-10T05:07:47.450Z,13.90
2023-04-10T05:12:49.272Z,14.57
2023-04-10T05:17:51.211Z,14.74
2023-04-10T05:22:53.115Z,14.96
2023-04-10T05:27:54.982Z,15.36
2023-04-10T05:32:56.832Z,15.41
2023-04-10T05:37:58.647Z,15.40
2023-04-10T05:43:00.478Z,17.83
2023-04-10T05:48:02.368Z,17.73
2023-04-10T05:53:04.393Z,18.33
2023-04-10T05:58:06.282Z,17.64
2023-04-10T06:03:08.170Z,17.95
2023-04-10T06:08:10.230Z,17.31
2023-04-10T06:13:12.164Z,18.39
2023-04-10T06:18:14.122Z,20.47
2023-04-10T06:23:16.010Z,19.91
2023-04-10T06:28:17.876Z,17.98
2023-04-10T06:33:19.949Z,20.45
2023-04-10T06:38:21.878Z,24.05
2023-04-10T06:43:23.721Z,26.40
2023-04-10T06:48:25.526Z,26.12
2023-04-10T06:53:27.513Z,23.04
2023-04-10T06:58:30.157Z,22.50
2023-04-10T07:03:32.678Z,20.82
2023-04-10T07:08:34.650Z,18.94
2023-04-10T07:13:36.899Z,18.14
2023-04-10T07:18:38.963Z,20.85
2023-04-10T07:23:40.832Z,24.54
2023-04-10T07:28:42.672Z,23.75
2023-04-10T07:33:47.413Z,28.08
2023-04-10T07:38:49.324Z,31.20
2023-04-10T07:43:51.135Z,32.08
2023-04-10T07:48:53.598Z,27.33
2023-04-10T07:53:55.520Z,23.05
2023-04-10T07:58:59.694Z,21.82
2023-04-10T08:04:04.776Z,21.58
2023-04-10T08:09:07.539Z,20.77
2023-04-10T08:14:09.293Z,20.09
2023-04-10T08:19:11.088Z,18.72
2023-04-10T08:24:13.046Z,18.30
2023-04-10T08:29:14.608Z,18.58
2023-04-10T08:34:16.810Z,18.39
2023-04-10T08:39:19.261Z,18.05
2023-04-10T08:44:21.491Z,18.03
2023-04-10T08:49:59.795Z,18.19
2023-04-10T08:55:04.983Z,17.93
2023-04-10T09:00:20.147Z,17.40
2023-04-10T09:05:26.825Z,17.16
2023-04-10T09:10:28.851Z,16.76
2023-04-10T09:15:30.728Z,16.69
2023-04-10T09:20:32.761Z,16.44
2023-04-10T09:25:36.401Z,16.10
2023-04-10T09:30:39.754Z,16.32
2023-04-10T09:35:41.711Z,16.43
2023-04-10T09:40:44.171Z,16.28
2023-04-10T09:45:50.853Z,15.82
2023-04-10T09:50:52.721Z,15.98
2023-04-10T09:55:54.635Z,16.09
2023-04-10T10:00:56.857Z,16.18
2023-04-10T10:05:58.555Z,15.91
2023-04-10T10:11:00.507Z,16.14
2023-04-10T10:16:21.523Z,16.00
2023-04-10T10:21:23.594Z,16.18
2023-04-10T10:26:25.389Z,15.81
2023-04-10T10:31:27.349Z,15.90
2023-04-10T10:36:29.271Z,16.13
2023-04-10T10:41:43.777Z,16.55
2023-04-10T10:46:52.320Z,16.49
2023-04-10T10:51:54.298Z,16.95
2023-04-10T10:56:56.179Z,17.10
2023-04-10T11:02:14.032Z,17.35
2023-04-10T11:07:16.280Z,16.33
2023-04-10T11:12:19.867Z,15.62
2023-04-10T11:18:06.864Z,15.51
2023-04-10T11:23:12.757Z,14.60
2023-04-10T11:28:43.627Z,14.51
2023-04-10T11:33:49.289Z,14.07
2023-04-10T11:38:54.854Z,13.76
2023-04-10T11:44:01.057Z,13.96
2023-04-10T11:49:04.134Z,12.93
2023-04-10T11:54:10.419Z,13.04
2023-04-10T11:59:12.410Z,12.45
2023-04-10T12:04:18.370Z,12.26
2023-04-10T12:09:21.152Z,12.15
2023-04-10T12:14:23.308Z,12.46
2023-04-10T12:19:25.278Z,12.46
2023-04-10T12:24:47.116Z,12.77
2023-04-10T12:29:50.842Z,13.06
2023-04-10T12:34:52.962Z,13.09
2023-04-10T12:40:05.970Z,13.07
2023-04-10T12:45:08.371Z,13.10
2023-04-10T12:50:11.730Z,13.47
2023-04-10T12:55:17.732Z,13.59
2023-04-10T13:00:19.730Z,13.42
2023-04-10T13:05:21.625Z,13.29
2023-04-10T13:10:23.534Z,13.31
2023-04-10T13:15:25.374Z,13.61
2023-04-10T13:20:27.238Z,13.68
2023-04-10T13:25:30.437Z,13.45
2023-04-10T13:30:33.003Z,13.29
2023-04-10T13:35:35.031Z,13.83
2023-04-10T13:40:37.091Z,14.11
2023-04-10T13:45:39.088Z,14.21
2023-04-10T13:50:42.354Z,14.13
2023-04-10T13:55:45.150Z,13.89
2023-04-10T14:00:46.982Z,13.79
2023-04-10T14:05:48.859Z,13.49
2023-04-10T14:10:50.839Z,13.11
2023-04-10T14:15:52.727Z,12.45
2023-04-10T14:20:55.355Z,12.37
2023-04-10T14:25:57.261Z,12.16
2023-04-10T14:30:59.113Z,12.08
2023-04-10T14:36:01.173Z,11.82
2023-04-10T14:41:03.257Z,11.55
2023-04-10T14:46:05.702Z,11.55
2023-04-10T14:51:10.324Z,11.46
2023-04-10T14:56:13.718Z,11.53
2023-04-10T15:01:16.550Z,11.58
2023-04-10T15:06:18.527Z,11.71
2023-04-10T15:11:20.447Z,11.60
2023-04-10T15:16:22.401Z,11.47
2023-04-10T15:21:24.320Z,11.72
2023-04-10T15:26:26.214Z,11.87
2023-04-10T15:31:29.085Z,11.91
2023-04-10T15:36:30.977Z,11.93
2023-04-10T15:41:32.815Z,11.88
2023-04-10T15:46:34.788Z,11.84
2023-04-10T15:51:36.688Z,11.79
2023-04-10T15:56:38.584Z,11.53
2023-04-10T16:01:40.692Z,11.60
2023-04-10T16:06:42.698Z,11.44
2023-04-10T16:11:44.681Z,11.38
2023-04-10T16:16:46.900Z,11.31
2023-04-10T16:21:48.772Z,11.31
2023-04-10T16:26:51.067Z,11.28
2023-04-10T16:31:53.327Z,11.29
2023-04-10T16:36:55.211Z,11.29
2023-04-10T16:41:57.333Z,11.23
2023-04-10T16:46:59.568Z,11.13
2023-04-10T16:52:01.492Z,11.07
2023-04-10T16:57:03.797Z,11.02
2023-04-10T17:02:06.019Z,10.94
2023-04-10T17:07:08.002Z,10.94
2023-04-10T17:12:09.909Z,10.95
2023-04-10T17:17:11.877Z,10.98
2023-04-10T17:22:13.831Z,10.95
2023-04-10T17:27:15.689Z,10.91
2023-04-10T17:32:17.541Z,10.79
2023-04-10T17:37:19.708Z,10.71
2023-04-10T17:42:21.642Z,10.67
2023-04-10T17:47:23.518Z,10.67
2023-04-10T17:52:25.409Z,10.63
2023-04-10T17:57:27.234Z,10.60
2023-04-10T18:02:29.183Z,10.51
2023-04-10T18:07:31.139Z,10.44
2023-04-10T18:12:33.147Z,10.45
2023-04-10T18:17:36.331Z,10.45
2023-04-10T18:22:39.937Z,10.46
2023-04-10T18:27:45.521Z,10.47
2023-04-10T18:32:54.448Z,10.47
2023-04-10T18:37:56.349Z,10.47
2023-04-10T18:42:58.247Z,10.50
2023-04-10T18:48:00.181Z,10.49
2023-04-10T18:53:02.096Z,10.51
2023-04-10T18:58:03.915Z,10.48
2023-04-10T19:03:06.073Z,10.44
2023-04-10T19:08:08.189Z,10.38
2023-04-10T19:13:10.708Z,10.37
2023-04-10T19:18:13.998Z,10.26
2023-04-10T19:23:17.620Z,10.24
2023-04-10T19:28:19.654Z,10.23
2023-04-10T19:33:21.528Z,10.29
2023-04-10T19:38:23.468Z,10.34
2023-04-10T19:43:25.529Z,10.38
2023-04-10T19:48:27.513Z,10.41
2023-04-10T19:53:29.449Z,10.43
2023-04-10T20:03:38.064Z,10.45
2023-04-10T20:08:40.211Z,10.41
2023-04-10T20:13:42.106Z,10.42
2023-04-10T20:18:44.000Z,10.46
2023-04-10T20:23:45.876Z,10.53
2023-04-10T20:28:47.826Z,10.53
2023-04-10T20:33:49.806Z,10.54
2023-04-10T20:38:51.793Z,10.54
2023-04-10T20:43:53.919Z,10.51
2023-04-10T20:48:56.020Z,10.46
2023-04-10T20:53:58.117Z,10.37
2023-04-10T20:59:00.070Z,10.40
2023-04-10T21:04:02.121Z,10.45
2023-04-10T21:09:04.145Z,10.45
2023-04-10T21:14:06.073Z,10.44
2023-04-10T21:19:11.026Z,10.42
2023-04-10T21:24:12.969Z,10.38
2023-04-10T21:29:14.884Z,10.35
2023-04-10T21:34:16.773Z,10.31
2023-04-10T21:39:18.646Z,10.29
2023-04-10T21:44:20.505Z,10.34
2023-04-10T21:49:22.371Z,10.30
2023-04-10T21:54:24.333Z,10.35
2023-04-10T21:59:26.251Z,10.41
2023-04-10T22:04:28.077Z,10.44
2023-04-10T22:09:29.948Z,10.47
2023-04-10T22:14:31.877Z,10.50
2023-04-10T22:19:33.752Z,10.52
2023-04-10T22:24:35.569Z,10.51
2023-04-10T22:29:37.498Z,10.47
2023-04-10T22:34:39.404Z,10.46
2023-04-10T22:39:41.292Z,10.49
2023-04-10T22:44:44.787Z,10.49
2023-04-10T22:49:46.910Z,10.36
2023-04-10T22:54:48.849Z,10.38
2023-04-10T22:59:50.879Z,10.36
2023-04-10T23:04:52.885Z,10.34
2023-04-10T23:09:54.782Z,10.30
2023-04-10T23:14:56.708Z,10.15
2023-04-10T23:19:58.587Z,10.05
2023-04-10T23:25:00.528Z,9.89
2023-04-10T23:30:02.412Z,10.03
2023-04-10T23:35:06.127Z,10.06
2023-04-10T23:40:08.710Z,10.08
2023-04-10T23:45:10.634Z,9.88
2023-04-10T23:50:12.466Z,9.89
2023-04-10T23:55:14.416Z,9.87
